Time;durP1;ratioP1;P1;durP2;ratioP2;P2;SDS_P1;SDS_P2;PMS_P1;PMS_P2;Temp;Humidity;BMP_temperature;BMP_pressure;BME280_temperature;BME280_humidity;BME280_pressure;Samples;Min_cycle;Max_cycle;Signal;HPM_P1;HPM_P2
2023/02/28 00:02:17;;;;;;;5.80;4.47;;;;;;;0.63;57.47;98619.94;6283664;28;20222;-71
2023/02/28 00:05:22;;;;;;;6.63;4.90;;;;;;;0.73;57.38;98639.03;6268532;28;20593;-69
2023/02/28 00:08:24;;;;;;;7.40;5.10;;;;;;;0.66;58.26;98648.50;6267225;28;20286;-69
2023/02/28 00:11:26;;;;;;;7.30;4.50;;;;;;;0.66;58.74;98661.59;6267234;28;20230;-70
2023/02/28 00:14:30;;;;;;;8.20;4.80;;;;;;;0.62;58.60;98655.84;6267771;28;20231;-69
2023/02/28 00:17:32;;;;;;;6.50;4.90;;;;;;;0.61;58.98;98661.25;6266436;28;20222;-69
2023/02/28 00:20:34;;;;;;;5.73;4.00;;;;;;;0.59;59.00;98655.31;6287852;28;20695;-69
2023/02/28 00:23:37;;;;;;;8.73;4.73;;;;;;;0.52;58.81;98644.63;6284456;28;20377;-70
2023/02/28 00:26:39;;;;;;;5.77;4.57;;;;;;;0.53;59.00;98662.00;6261928;28;20668;-70
2023/02/28 00:29:41;;;;;;;8.47;5.57;;;;;;;0.12;59.22;98600.63;6262851;28;20254;-69
2023/02/28 00:32:45;;;;;;;6.90;4.73;;;;;;;0.44;60.01;98663.78;6257925;28;20228;-70
2023/02/28 00:35:48;;;;;;;7.23;4.67;;;;;;;0.44;60.01;98658.53;6254906;28;20330;-69
2023/02/28 00:38:50;;;;;;;8.77;5.10;;;;;;;0.47;59.82;98662.63;6261911;28;20748;-70
2023/02/28 00:41:52;;;;;;;6.60;4.43;;;;;;;0.47;59.40;98666.06;6267007;28;20333;-68
2023/02/28 00:44:55;;;;;;;6.70;4.60;;;;;;;0.46;59.66;98663.59;6266103;28;20315;-68
2023/02/28 00:47:57;;;;;;;9.73;4.80;;;;;;;0.41;60.09;98660.63;6261334;28;20384;-68
2023/02/28 00:51:00;;;;;;;6.57;4.97;;;;;;;0.39;60.41;98654.69;6262043;28;20315;-68
2023/02/28 00:54:02;;;;;;;6.20;5.03;;;;;;;0.38;60.59;98658.28;6258954;28;20237;-68
2023/02/28 00:57:04;;;;;;;7.93;4.83;;;;;;;0.35;60.85;98654.19;6251534;28;20588;-68
2023/02/28 01:00:08;;;;;;;7.87;4.83;;;;;;;0.36;60.71;98653.22;6256478;28;20528;-68
2023/02/28 01:03:10;;;;;;;7.23;5.23;;;;;;;-0.03;60.25;98582.84;6250475;28;20753;-68
2023/02/28 01:06:12;;;;;;;7.30;4.87;;;;;;;0.05;60.12;98600.44;6257101;28;20223;-68
2023/02/28 01:09:14;;;;;;;7.83;5.23;;;;;;;0.29;59.78;98627.75;6255035;28;20246;-70
2023/02/28 01:12:16;;;;;;;6.57;4.77;;;;;;;0.52;59.91;98660.38;6244659;28;20252;-69
2023/02/28 01:15:21;;;;;;;8.23;5.50;;;;;;;0.58;59.29;98659.75;6254955;28;20284;-70
2023/02/28 01:18:24;;;;;;;9.07;5.93;;;;;;;0.14;59.21;98590.81;6240206;28;20219;-70
2023/02/28 01:21:26;;;;;;;9.17;5.40;;;;;;;0.52;59.05;98661.19;6256951;28;20214;-69
2023/02/28 01:24:29;;;;;;;7.80;5.03;;;;;;;0.33;59.62;98634.34;6253941;28;20235;-69
2023/02/28 01:27:31;;;;;;;9.37;5.43;;;;;;;0.44;60.08;98662.91;6237513;28;20603;-68
2023/02/28 01:30:33;;;;;;;8.50;5.20;;;;;;;0.14;59.31;98609.97;6256931;28;20595;-68
2023/02/28 01:33:36;;;;;;;7.80;4.97;;;;;;;0.42;59.44;98662.25;6239057;28;20231;-68
2023/02/28 01:36:38;;;;;;;7.17;4.70;;;;;;;0.42;59.91;98664.88;6257153;28;20612;-68
2023/02/28 01:39:40;;;;;;;6.97;5.23;;;;;;;0.01;59.63;98598.25;6261785;28;20709;-68
2023/02/28 01:42:42;;;;;;;10.30;5.50;;;;;;;0.43;59.35;98666.53;6248934;28;20228;-68
2023/02/28 01:45:43;;;;;;;9.17;5.23;;;;;;;0.43;60.17;98664.72;6255134;28;20235;-68
2023/02/28 01:48:59;;;;;;;7.37;5.30;;;;;;;0.27;59.52;98645.44;6254546;28;20261;-68
2023/02/28 01:52:02;;;;;;;8.03;5.60;;;;;;;0.40;58.94;98666.84;6248961;28;20612;-68
2023/02/28 01:55:07;;;;;;;8.30;5.57;;;;;;;0.38;58.86;98666.97;6252859;28;20685;-68
2023/02/28 01:58:10;;;;;;;9.00;5.53;;;;;;;0.25;58.74;98645.59;6252120;28;20733;-68
2023/02/28 02:01:21;;;;;;;8.53;5.77;;;;;;;0.02;58.96;98613.00;6251417;28;20629;-68
2023/02/28 02:04:27;;;;;;;7.03;5.10;;;;;;;0.32;59.06;98656.28;6255601;28;20314;-69
2023/02/28 02:07:34;;;;;;;7.80;5.13;;;;;;;0.29;59.18;98660.03;6255279;28;20233;-69
2023/02/28 02:10:42;;;;;;;7.43;4.70;;;;;;;0.36;59.72;98668.13;6253582;28;20723;-69
2023/02/28 02:13:57;;;;;;;7.60;4.90;;;;;;;0.40;59.66;98666.84;6237599;28;20236;-69
2023/02/28 02:17:09;;;;;;;7.17;4.90;;;;;;;0.44;59.09;98658.53;6244367;28;20535;-69
2023/02/28 02:20:46;;;;;;;6.57;4.67;;;;;;;0.44;60.45;98671.63;6255193;28;20228;-68
2023/02/28 02:24:24;;;;;;;6.97;4.53;;;;;;;0.40;60.59;98661.59;6251728;28;20629;-68
2023/02/28 02:27:48;;;;;;;7.07;4.83;;;;;;;0.37;60.94;98654.84;6212284;28;20234;-68
2023/02/28 02:31:06;;;;;;;6.37;4.77;;;;;;;0.33;60.97;98650.06;6265881;28;20304;-68
2023/02/28 02:34:40;;;;;;;7.00;4.50;;;;;;;0.30;60.77;98651.22;6249009;28;20265;-69
2023/02/28 02:38:07;;;;;;;9.73;5.40;;;;;;;0.26;60.96;98649.88;6220201;28;20232;-68
2023/02/28 02:41:40;;;;;;;7.77;4.87;;;;;;;0.15;61.32;98643.06;6231432;28;20311;-68
2023/02/28 02:44:49;;;;;;;8.00;5.13;;;;;;;-0.09;61.05;98607.03;6252801;28;20223;-68
2023/02/28 02:47:52;;;;;;;8.10;5.13;;;;;;;0.17;61.40;98646.34;6255271;28;20231;-71
2023/02/28 02:51:01;;;;;;;9.27;5.57;;;;;;;0.09;61.58;98650.69;6262512;28;20223;-68
2023/02/28 02:54:15;;;;;;;7.53;5.37;;;;;;;0.01;61.62;98655.88;6251043;28;20223;-68
2023/02/28 02:57:25;;;;;;;7.87;5.37;;;;;;;-0.04;61.93;98648.47;6256064;28;20215;-68
2023/02/28 03:00:35;;;;;;;8.43;5.00;;;;;;;-0.05;61.78;98654.66;6253102;28;20230;-68
2023/02/28 03:03:37;;;;;;;9.07;5.23;;;;;;;-0.05;62.13;98660.75;6252607;28;20218;-69
2023/02/28 03:06:39;;;;;;;7.33;5.03;;;;;;;-0.06;61.74;98656.47;6242521;28;20228;-68
2023/02/28 03:09:52;;;;;;;7.53;4.87;;;;;;;-0.06;61.42;98655.66;6250903;28;20234;-68
2023/02/28 03:13:08;;;;;;;7.57;4.90;;;;;;;-0.06;61.67;98655.66;6249559;28;20224;-68
2023/02/28 03:16:33;;;;;;;6.50;4.70;;;;;;;-0.12;61.82;98658.88;6253109;28;20235;-68
2023/02/28 03:20:23;;;;;;;6.93;5.13;;;;;;;-0.16;61.82;98660.97;6223093;28;20223;-68
2023/02/28 03:24:11;;;;;;;7.13;5.40;;;;;;;-0.27;61.77;98663.81;6230295;28;20322;-68
2023/02/28 03:27:22;;;;;;;7.77;5.90;;;;;;;-0.37;62.25;98658.63;6272373;28;20242;-70
2023/02/28 03:30:53;;;;;;;8.37;5.23;;;;;;;-0.70;62.66;98620.00;6277327;28;20223;-68
2023/02/28 03:34:03;;;;;;;8.57;6.50;;;;;;;-0.78;62.68;98620.75;6277501;28;20281;-68
2023/02/28 03:37:12;;;;;;;10.13;5.87;;;;;;;-0.87;63.01;98625.06;6278503;28;20230;-68
2023/02/28 03:40:20;;;;;;;9.23;5.73;;;;;;;-0.92;63.63;98634.31;6262609;28;20292;-68
2023/02/28 03:43:29;;;;;;;9.30;5.90;;;;;;;-0.97;63.27;98628.69;6275794;28;20234;-68
2023/02/28 03:46:38;;;;;;;10.43;5.90;;;;;;;-0.86;63.05;98654.66;6280855;28;20239;-68
2023/02/28 03:49:47;;;;;;;7.60;5.13;;;;;;;-0.90;63.65;98661.97;6259165;28;20364;-68
2023/02/28 03:52:54;;;;;;;10.50;6.27;;;;;;;-1.41;63.57;98581.41;6279311;28;20830;-68
2023/02/28 03:56:11;;;;;;;11.83;5.97;;;;;;;-1.03;63.67;98651.03;6275792;28;20266;-69
2023/02/28 03:59:18;;;;;;;8.77;5.80;;;;;;;-1.10;63.71;98649.94;6260401;28;20313;-69
2023/02/28 04:02:20;;;;;;;9.03;5.70;;;;;;;-1.61;64.08;98596.34;6254853;28;20230;-70
2023/02/28 04:05:22;;;;;;;9.23;6.13;;;;;;;-1.49;63.65;98613.47;6283293;28;20225;-70
2023/02/28 04:08:24;;;;;;;8.83;5.87;;;;;;;-1.18;64.19;98657.66;6261007;28;20230;-69
2023/02/28 04:11:34;;;;;;;12.33;6.27;;;;;;;-1.19;64.34;98654.22;6277124;28;20714;-69
2023/02/28 04:14:36;;;;;;;9.57;6.40;;;;;;;-1.23;64.31;98659.88;6271566;28;20325;-69
2023/02/28 04:17:38;;;;;;;9.80;6.57;;;;;;;-1.23;64.13;98665.09;6278406;28;20320;-69
2023/02/28 04:20:40;;;;;;;11.53;5.83;;;;;;;-1.23;64.54;98658.13;6276803;28;20568;-69
2023/02/28 04:23:42;;;;;;;11.03;6.90;;;;;;;-1.26;64.76;98654.97;6278474;28;20222;-69
2023/02/28 04:26:47;;;;;;;11.73;6.87;;;;;;;-1.23;65.22;98659.88;6259563;28;20726;-69
2023/02/28 04:29:49;;;;;;;9.67;6.00;;;;;;;-1.20;65.12;98659.59;6261464;28;20918;-69
2023/02/28 04:32:51;;;;;;;12.63;7.30;;;;;;;-1.24;64.95;98645.16;6282133;28;20729;-68
2023/02/28 04:36:04;;;;;;;10.47;7.10;;;;;;;-1.11;64.34;98658.75;6279998;28;20229;-68
2023/02/28 04:39:06;;;;;;;10.20;6.47;;;;;;;-1.08;64.80;98666.31;6279645;28;20226;-69
2023/02/28 04:42:09;;;;;;;10.13;6.53;;;;;;;-1.04;64.73;98668.47;6266528;28;20309;-67
2023/02/28 04:45:11;;;;;;;10.13;7.23;;;;;;;-0.98;64.73;98663.66;6281274;28;20727;-67
2023/02/28 04:48:13;;;;;;;8.37;6.13;;;;;;;-0.90;64.63;98672.41;6264666;28;20306;-67
2023/02/28 04:51:18;;;;;;;9.93;6.07;;;;;;;-0.80;63.93;98667.13;6265033;28;20706;-70
2023/02/28 04:54:20;;;;;;;8.80;6.00;;;;;;;-0.72;63.74;98669.03;6283276;28;20267;-67
2023/02/28 04:57:22;;;;;;;9.47;5.63;;;;;;;-0.67;63.42;98666.81;6246604;28;20214;-69
2023/02/28 05:00:24;;;;;;;9.83;6.20;;;;;;;-0.62;63.28;98667.19;6276273;28;20225;-69
2023/02/28 05:03:27;;;;;;;10.43;5.83;;;;;;;-0.58;62.91;98665.94;6281408;28;20226;-69
2023/02/28 05:06:31;;;;;;;10.37;5.97;;;;;;;-0.54;62.54;98667.31;6282104;28;20229;-71
2023/02/28 05:09:34;;;;;;;8.90;5.83;;;;;;;-0.52;62.60;98662.72;6280274;28;20233;-69
2023/02/28 05:12:36;;;;;;;8.57;5.60;;;;;;;-0.74;62.83;98635.16;6277682;28;20222;-69
2023/02/28 05:15:38;;;;;;;10.27;6.53;;;;;;;-0.53;62.68;98661.91;6263314;28;20240;-69
2023/02/28 05:18:41;;;;;;;9.73;6.00;;;;;;;-0.55;62.79;98663.84;6263283;28;20762;-69
2023/02/28 05:21:52;;;;;;;8.33;6.07;;;;;;;-0.64;62.04;98661.28;6280971;28;20226;-69
2023/02/28 05:24:54;;;;;;;10.53;6.60;;;;;;;-0.79;62.91;98653.94;6277724;28;20364;-69
2023/02/28 05:27:56;;;;;;;8.47;6.20;;;;;;;-0.86;62.98;98662.50;6279780;28;20346;-69
2023/02/28 05:30:58;;;;;;;8.83;5.50;;;;;;;-0.91;63.31;98662.09;6265516;28;20238;-69
2023/02/28 05:34:00;;;;;;;10.70;6.60;;;;;;;-1.04;64.16;98665.88;6283269;28;20234;-69
2023/02/28 05:37:03;;;;;;;9.20;6.53;;;;;;;-1.08;64.13;98661.91;6283014;28;20230;-69
2023/02/28 05:40:08;;;;;;;11.47;6.57;;;;;;;-1.11;63.82;98667.41;6282560;28;20715;-69
2023/02/28 05:43:11;;;;;;;12.00;6.93;;;;;;;-1.58;64.09;98609.09;6263367;28;20230;-69
2023/02/28 05:46:13;;;;;;;10.13;6.77;;;;;;;-1.25;64.36;98672.28;6280705;28;20714;-69
2023/02/28 05:49:16;;;;;;;9.93;6.87;;;;;;;-1.30;64.10;98678.75;6280761;28;20254;-69
2023/02/28 05:52:18;;;;;;;10.07;6.70;;;;;;;-1.56;64.33;98651.59;6284653;28;20837;-69
2023/02/28 05:55:20;;;;;;;12.00;6.90;;;;;;;-1.48;64.82;98683.06;6286484;28;20325;-69
2023/02/28 05:58:22;;;;;;;9.73;6.53;;;;;;;-1.47;64.54;98686.53;6264286;28;20237;-70
2023/02/28 06:01:47;;;;;;;11.53;6.93;;;;;;;-1.47;64.54;98686.53;6282827;28;20380;-69
2023/02/28 06:04:50;;;;;;;11.63;7.80;;;;;;;-1.54;64.90;98688.03;6273432;28;20606;-69
2023/02/28 06:07:52;;;;;;;8.97;6.00;;;;;;;-1.60;65.10;98705.91;6280403;28;20232;-69
2023/02/28 06:10:54;;;;;;;8.97;6.47;;;;;;;-1.63;65.30;98703.56;6278950;28;20237;-70
2023/02/28 06:13:59;;;;;;;10.53;7.13;;;;;;;-1.90;65.36;98661.69;6278914;28;20226;-68
2023/02/28 06:17:02;;;;;;;11.20;7.00;;;;;;;-1.69;65.43;98692.84;6261366;28;20313;-67
2023/02/28 06:20:05;;;;;;;10.17;6.37;;;;;;;-1.70;65.52;98699.88;6278486;28;20238;-69
2023/02/28 06:23:07;;;;;;;11.03;6.77;;;;;;;-1.69;65.38;98701.53;6281916;28;20581;-69
2023/02/28 06:26:10;;;;;;;10.47;6.37;;;;;;;-1.67;65.00;98701.41;6281441;28;20724;-69
2023/02/28 06:29:16;;;;;;;10.57;7.13;;;;;;;-1.62;65.06;98702.63;6263498;28;20317;-69
2023/02/28 06:32:19;;;;;;;11.00;6.80;;;;;;;-1.53;64.89;98705.34;6263649;28;20227;-69
2023/02/28 06:35:21;;;;;;;10.50;6.70;;;;;;;-1.44;64.22;98710.56;6262765;28;20233;-69
2023/02/28 06:38:24;;;;;;;11.43;6.53;;;;;;;-1.38;64.68;98712.63;6280105;28;20225;-69
2023/02/28 06:41:26;;;;;;;10.27;6.67;;;;;;;-1.47;64.65;98689.13;6241510;28;20244;-69
2023/02/28 06:44:35;;;;;;;9.57;5.83;;;;;;;-1.16;64.20;98724.53;6259536;28;20250;-69
2023/02/28 06:47:38;;;;;;;9.17;6.73;;;;;;;-1.08;63.46;98726.47;6278270;28;20226;-70
2023/02/28 06:50:40;;;;;;;10.93;7.03;;;;;;;-1.04;63.30;98718.16;6244104;28;20349;-70
2023/02/28 06:53:43;;;;;;;9.97;6.80;;;;;;;-1.09;63.57;98722.16;6277719;28;20232;-69
2023/02/28 06:56:45;;;;;;;9.27;6.73;;;;;;;-1.08;64.17;98722.06;6275730;28;20749;-70
2023/02/28 06:59:46;;;;;;;11.93;6.67;;;;;;;-1.03;64.28;98724.25;6278628;28;20742;-69
2023/02/28 07:02:48;;;;;;;11.10;7.83;;;;;;;-0.96;64.05;98720.06;6271474;28;20222;-69
2023/02/28 07:05:51;;;;;;;13.27;8.20;;;;;;;-0.93;64.58;98719.81;6277126;28;20313;-69
2023/02/28 07:08:53;;;;;;;13.03;8.80;;;;;;;-1.03;64.65;98687.63;6279143;28;20230;-69
2023/02/28 07:11:56;;;;;;;13.37;7.97;;;;;;;-0.69;64.50;98727.16;6278042;28;20325;-69
2023/02/28 07:14:58;;;;;;;14.10;8.37;;;;;;;-0.51;64.55;98729.81;6282603;28;20975;-69
2023/02/28 07:18:00;;;;;;;12.43;8.10;;;;;;;-0.30;64.41;98726.91;6282167;28;20225;-70
2023/02/28 07:21:08;;;;;;;14.43;8.97;;;;;;;-0.04;63.54;98733.13;6282908;28;20226;-70
2023/02/28 07:24:10;;;;;;;12.57;8.03;;;;;;;0.26;62.60;98728.47;6265205;28;20687;-70
2023/02/28 07:27:12;;;;;;;14.87;8.93;;;;;;;0.44;61.47;98729.31;6261442;28;20228;-70
2023/02/28 07:30:14;;;;;;;11.77;8.83;;;;;;;0.61;61.23;98734.66;6274902;28;20226;-69
2023/02/28 07:33:16;;;;;;;14.30;9.10;;;;;;;0.70;60.54;98716.22;6278547;28;20217;-69
2023/02/28 07:36:18;;;;;;;14.03;8.50;;;;;;;0.97;59.75;98728.34;6277179;28;20344;-69
2023/02/28 07:39:21;;;;;;;12.97;9.80;;;;;;;1.10;59.15;98724.50;6278670;28;20218;-69
2023/02/28 07:42:23;;;;;;;12.83;9.17;;;;;;;1.22;58.34;98721.44;6277938;28;20235;-69
2023/02/28 07:45:26;;;;;;;13.43;8.63;;;;;;;1.24;57.49;98708.16;6257117;28;20739;-69
2023/02/28 07:48:28;;;;;;;13.30;9.07;;;;;;;1.28;57.25;98696.34;6273690;28;20232;-70
2023/02/28 07:51:30;;;;;;;13.03;8.77;;;;;;;1.34;56.91;98673.91;6277195;28;20611;-70
2023/02/28 07:54:33;;;;;;;12.33;8.43;;;;;;;1.95;55.75;98731.38;6259387;28;20251;-71
2023/02/28 07:57:35;;;;;;;14.67;9.03;;;;;;;1.91;54.38;98703.78;6272776;28;20232;-69
2023/02/28 08:00:37;;;;;;;12.90;9.17;;;;;;;2.03;55.26;98738.47;6285490;28;20228;-69
2023/02/28 08:03:40;;;;;;;12.47;8.33;;;;;;;2.23;55.07;98741.63;6257575;28;20309;-70
2023/02/28 08:06:42;;;;;;;14.00;8.33;;;;;;;2.49;53.66;98744.94;6283708;28;20276;-70
2023/02/28 08:09:44;;;;;;;11.20;8.60;;;;;;;2.59;53.17;98739.50;6265275;28;20301;-69
2023/02/28 08:12:47;;;;;;;10.80;8.00;;;;;;;2.73;52.48;98741.47;6267101;28;20264;-70
2023/02/28 08:15:49;;;;;;;12.13;8.20;;;;;;;2.50;52.08;98678.19;6285103;28;20316;-70
2023/02/28 08:18:52;;;;;;;11.07;8.03;;;;;;;3.05;50.52;98739.78;6283293;28;20371;-70
2023/02/28 08:21:54;;;;;;;13.77;7.73;;;;;;;2.97;49.79;98740.63;6283831;28;20596;-70
2023/02/28 08:24:56;;;;;;;12.77;8.57;;;;;;;3.18;49.60;98745.34;6264511;28;20649;-70
2023/02/28 08:27:58;;;;;;;10.67;7.83;;;;;;;3.10;49.13;98696.19;6281484;28;20246;-70
2023/02/28 08:31:00;;;;;;;11.63;7.67;;;;;;;3.66;48.69;98740.91;6282522;28;20285;-70
2023/02/28 08:34:10;;;;;;;9.43;7.90;;;;;;;3.96;48.43;98739.28;6265042;28;20232;-70
2023/02/28 08:37:12;;;;;;;10.53;8.07;;;;;;;4.27;47.23;98748.97;6256398;28;20712;-71
2023/02/28 08:40:17;;;;;;;11.27;8.80;;;;;;;4.45;46.48;98743.44;6283122;28;20704;-70
2023/02/28 08:43:20;;;;;;;11.33;8.20;;;;;;;5.04;45.38;98751.50;6263836;28;20796;-70
2023/02/28 08:46:23;;;;;;;12.33;8.43;;;;;;;5.27;44.50;98749.63;6282162;28;20599;-70
2023/02/28 08:49:25;;;;;;;12.20;9.27;;;;;;;5.54;43.49;98719.09;6263326;28;20237;-70
2023/02/28 08:52:27;;;;;;;11.50;9.07;;;;;;;6.05;42.31;98747.38;6281768;28;20711;-70
2023/02/28 08:55:29;;;;;;;12.17;8.43;;;;;;;5.46;42.78;98689.28;6257536;28;20730;-71
2023/02/28 08:58:33;;;;;;;9.80;7.70;;;;;;;5.71;42.84;98740.84;6262547;28;20227;-70
2023/02/28 09:01:36;;;;;;;10.43;8.97;;;;;;;5.47;43.59;98762.28;6283488;28;20371;-70
2023/02/28 09:04:38;;;;;;;12.33;9.17;;;;;;;5.13;44.34;98753.91;6260044;28;20235;-70
2023/02/28 09:07:40;;;;;;;14.73;9.00;;;;;;;4.90;45.09;98751.28;6284166;28;20239;-70
2023/02/28 09:10:42;;;;;;;11.03;9.40;;;;;;;5.04;44.93;98752.31;6263463;28;20376;-70
2023/02/28 09:13:45;;;;;;;10.23;8.50;;;;;;;5.18;45.28;98745.44;6279493;28;20248;-70
2023/02/28 09:16:47;;;;;;;11.10;9.30;;;;;;;5.04;44.72;98744.41;6280166;28;20245;-70
2023/02/28 09:19:49;;;;;;;11.40;8.87;;;;;;;5.09;46.18;98751.78;6244556;28;20712;-70
2023/02/28 09:22:51;;;;;;;11.93;9.10;;;;;;;5.26;45.59;98747.16;6253899;28;20603;-70
2023/02/28 09:25:54;;;;;;;11.87;8.83;;;;;;;5.44;45.02;98750.25;6262778;28;20283;-71
2023/02/28 09:28:58;;;;;;;13.07;9.53;;;;;;;5.22;44.64;98678.03;6280316;28;20356;-69
2023/02/28 09:32:01;;;;;;;12.07;9.10;;;;;;;5.30;44.75;98682.38;6262707;28;20756;-69
2023/02/28 09:35:05;;;;;;;12.47;9.33;;;;;;;5.51;44.85;98742.41;6281305;28;20372;-69
2023/02/28 09:38:07;;;;;;;13.33;9.57;;;;;;;5.71;44.76;98722.34;6281075;28;20234;-69
2023/02/28 09:41:25;;;;;;;13.57;10.10;;;;;;;5.83;44.16;98744.66;6280070;28;20219;-70
2023/02/28 09:44:42;;;;;;;13.50;9.30;;;;;;;5.60;44.13;98741.31;6261823;28;20288;-71
2023/02/28 09:47:49;;;;;;;11.77;9.37;;;;;;;5.44;45.00;98748.44;6261977;28;20223;-68
2023/02/28 09:51:00;;;;;;;12.33;10.03;;;;;;;5.53;45.03;98706.06;6271318;28;20716;-68
2023/02/28 09:54:02;;;;;;;13.23;9.83;;;;;;;6.25;43.76;98740.47;6260410;28;20224;-71
2023/02/28 09:57:04;;;;;;;11.87;10.17;;;;;;;6.42;43.40;98746.38;6261153;28;20300;-69
2023/02/28 10:00:24;;;;;;;12.83;9.43;;;;;;;6.72;42.82;98749.69;6281109;28;20219;-69
2023/02/28 10:03:40;;;;;;;12.00;9.37;;;;;;;7.13;42.40;98755.09;6246185;28;20898;-70
2023/02/28 10:06:50;;;;;;;14.63;9.93;;;;;;;7.03;41.58;98730.78;6279091;28;20709;-70
2023/02/28 10:09:58;;;;;;;13.30;10.57;;;;;;;6.53;42.47;98766.22;6274242;28;20232;-70
2023/02/28 10:13:04;;;;;;;11.70;9.70;;;;;;;6.53;43.21;98764.38;6265830;28;20234;-70
2023/02/28 10:16:10;;;;;;;12.67;9.77;;;;;;;6.86;42.79;98767.34;6263492;28;20659;-70
2023/02/28 10:19:20;;;;;;;14.03;10.90;;;;;;;6.78;42.12;98762.16;6277335;28;20598;-70
2023/02/28 10:22:28;;;;;;;13.63;9.97;;;;;;;5.77;43.20;98687.25;6263161;28;20845;-69
2023/02/28 10:25:30;;;;;;;11.73;9.70;;;;;;;6.07;43.95;98750.69;6277178;28;20710;-69
2023/02/28 10:28:32;;;;;;;13.00;10.63;;;;;;;5.90;44.00;98757.97;6278012;28;20247;-68
2023/02/28 10:31:34;;;;;;;15.27;10.20;;;;;;;5.97;44.29;98745.69;6275383;28;20228;-68
2023/02/28 10:34:36;;;;;;;14.07;10.60;;;;;;;6.42;42.98;98752.47;6280136;28;20238;-70
2023/02/28 10:37:40;;;;;;;13.73;10.57;;;;;;;6.59;42.81;98738.97;6275353;28;20456;-70
2023/02/28 10:40:42;;;;;;;12.83;9.53;;;;;;;6.71;42.50;98730.34;6265306;28;20663;-70
2023/02/28 10:43:47;;;;;;;13.37;9.13;;;;;;;6.65;42.66;98715.22;6278770;28;20327;-70
2023/02/28 10:46:50;;;;;;;13.90;8.87;;;;;;;7.13;41.91;98730.44;6277642;28;20233;-70
2023/02/28 10:49:52;;;;;;;11.90;9.67;;;;;;;7.04;41.23;98695.31;6278566;28;20235;-70
2023/02/28 10:53:04;;;;;;;12.23;10.10;;;;;;;7.26;41.16;98735.00;6261202;28;20694;-70
2023/02/28 10:56:09;;;;;;;10.83;9.47;;;;;;;7.30;41.54;98721.19;6259148;28;20248;-72
2023/02/28 10:59:14;;;;;;;13.73;10.53;;;;;;;7.32;41.29;98719.13;6274410;28;20712;-69
2023/02/28 11:02:44;;;;;;;11.77;9.20;;;;;;;7.78;41.35;98723.03;6257687;28;20243;-69
2023/02/28 11:05:48;;;;;;;14.00;9.83;;;;;;;8.27;39.71;98713.00;6261446;28;20348;-69
2023/02/28 11:09:17;;;;;;;9.70;7.50;;;;;;;8.19;38.48;98710.53;6280468;28;20219;-70
2023/02/28 11:12:21;;;;;;;10.73;9.33;;;;;;;8.47;37.52;98717.53;6276886;28;20326;-70
2023/02/28 11:15:30;;;;;;;12.83;9.57;;;;;;;8.66;37.01;98718.56;6262645;28;20775;-70
2023/02/28 11:18:44;;;;;;;12.30;9.50;;;;;;;8.65;37.22;98716.94;6279349;28;20231;-70
2023/02/28 11:22:07;;;;;;;13.70;9.50;;;;;;;8.62;37.73;98702.25;6271129;28;20231;-70
2023/02/28 11:25:19;;;;;;;12.30;9.50;;;;;;;8.79;37.37;98698.13;6258023;28;20245;-71
2023/02/28 11:28:33;;;;;;;10.97;8.73;;;;;;;8.93;37.04;98696.28;6278261;28;20234;-70
2023/02/28 11:31:35;;;;;;;11.87;9.00;;;;;;;8.66;36.46;98699.97;6275651;28;20238;-70
2023/02/28 11:34:39;;;;;;;9.77;8.07;;;;;;;8.53;37.14;98692.84;6245858;28;20241;-69
2023/02/28 11:37:41;;;;;;;13.13;9.43;;;;;;;8.21;36.73;98694.38;6266853;28;20226;-69
2023/02/28 11:40:46;;;;;;;10.47;8.20;;;;;;;8.24;37.46;98694.00;6276594;28;20227;-70
2023/02/28 11:44:25;;;;;;;10.77;8.20;;;;;;;8.65;37.82;98685.06;6259076;28;20229;-70
2023/02/28 11:47:44;;;;;;;10.73;8.77;;;;;;;7.99;36.53;98678.63;6275250;28;20219;-70
2023/02/28 11:51:15;;;;;;;9.30;7.53;;;;;;;7.12;37.31;98684.56;6281272;28;20241;-69
2023/02/28 11:54:29;;;;;;;9.57;7.23;;;;;;;6.70;38.12;98685.53;6279636;28;20239;-69
2023/02/28 11:57:35;;;;;;;10.83;7.83;;;;;;;6.39;38.90;98697.25;6280183;28;20231;-69
2023/02/28 12:00:48;;;;;;;9.40;7.13;;;;;;;6.02;39.97;98673.72;6279508;28;20836;-69
2023/02/28 12:03:59;;;;;;;9.60;7.10;;;;;;;6.02;40.35;98682.47;6258856;28;20248;-69
2023/02/28 12:07:22;;;;;;;10.70;8.53;;;;;;;5.95;40.48;98685.00;6274543;28;20777;-69
2023/02/28 12:10:30;;;;;;;12.27;8.00;;;;;;;5.83;40.99;98664.53;6260205;28;20791;-70
2023/02/28 12:13:45;;;;;;;9.67;8.57;;;;;;;5.88;40.78;98675.34;6260699;28;20239;-69
2023/02/28 12:16:59;;;;;;;10.20;7.87;;;;;;;5.95;41.03;98668.34;6275575;28;20237;-69
2023/02/28 12:20:29;;;;;;;9.07;7.57;;;;;;;6.34;41.13;98673.19;6276957;28;20304;-72
2023/02/28 12:23:49;;;;;;;8.83;7.57;;;;;;;6.79;39.56;98667.63;6250780;28;20232;-71
2023/02/28 12:26:54;;;;;;;11.30;7.83;;;;;;;7.03;39.88;98658.44;6258395;28;20595;-70
2023/02/28 12:30:22;;;;;;;9.83;7.93;;;;;;;7.15;39.46;98656.88;6253340;28;20220;-69
2023/02/28 12:33:30;;;;;;;10.73;8.00;;;;;;;6.93;39.51;98625.16;6217609;28;20319;-70
2023/02/28 12:36:35;;;;;;;12.17;7.70;;;;;;;6.40;39.88;98595.69;6251919;28;20770;-69
2023/02/28 12:39:44;;;;;;;13.40;8.43;;;;;;;6.83;39.98;98655.66;6234106;28;20723;-70
2023/02/28 12:42:54;;;;;;;9.30;8.23;;;;;;;6.81;40.07;98653.22;6231788;28;20240;-70
2023/02/28 12:46:02;;;;;;;10.53;7.90;;;;;;;6.70;40.49;98649.28;6259221;28;20576;-69
2023/02/28 12:49:17;;;;;;;12.47;8.63;;;;;;;6.61;40.87;98646.97;6251384;28;20601;-69
2023/02/28 12:52:39;;;;;;;11.57;9.10;;;;;;;6.10;41.63;98650.56;6254176;28;20248;-69
2023/02/28 12:55:49;;;;;;;11.90;9.23;;;;;;;6.16;42.38;98644.56;6230626;28;20329;-69
2023/02/28 12:58:57;;;;;;;11.37;8.27;;;;;;;5.95;42.30;98642.69;6254706;28;20238;-69
2023/02/28 13:02:17;;;;;;;11.37;8.83;;;;;;;5.92;42.55;98645.75;6240127;28;20608;-69
2023/02/28 13:05:53;;;;;;;10.80;8.30;;;;;;;5.53;42.64;98619.66;6258920;28;20793;-69
2023/02/28 13:09:13;;;;;;;9.10;7.73;;;;;;;5.71;42.80;98624.53;6254463;28;20298;-69
2023/02/28 13:12:16;;;;;;;12.27;8.83;;;;;;;5.80;42.63;98655.13;6256928;28;20238;-69
2023/02/28 13:15:21;;;;;;;10.30;8.03;;;;;;;5.59;43.61;98641.88;6239548;28;20215;-68
2023/02/28 13:18:39;;;;;;;11.37;8.33;;;;;;;5.41;43.73;98648.38;6256645;28;20229;-69
2023/02/28 13:21:44;;;;;;;11.90;8.83;;;;;;;5.59;43.69;98639.25;6257262;28;20269;-70
2023/02/28 13:24:51;;;;;;;11.70;9.00;;;;;;;5.65;43.65;98641.94;6256054;28;20224;-71
2023/02/28 13:27:56;;;;;;;10.33;8.37;;;;;;;5.40;43.57;98598.38;6237860;28;20966;-72
2023/02/28 13:31:02;;;;;;;11.53;8.70;;;;;;;5.76;43.25;98632.72;6234155;28;20270;-69
2023/02/28 13:34:12;;;;;;;10.60;8.03;;;;;;;5.97;43.24;98634.59;6255992;28;20235;-70
2023/02/28 13:37:29;;;;;;;11.27;8.17;;;;;;;5.88;43.49;98635.69;6250487;28;20241;-70
2023/02/28 13:40:37;;;;;;;9.37;7.57;;;;;;;5.58;43.02;98555.69;6253824;28;20241;-69
2023/02/28 13:44:16;;;;;;;9.53;7.53;;;;;;;6.17;42.47;98627.66;6254901;28;20227;-70
2023/02/28 13:47:27;;;;;;;11.90;7.07;;;;;;;5.92;42.27;98623.78;6228010;28;20229;-69
2023/02/28 13:50:38;;;;;;;14.17;7.80;;;;;;;5.72;42.78;98639.41;6234406;28;20242;-70
2023/02/28 13:53:55;;;;;;;10.97;7.47;;;;;;;5.41;43.23;98644.91;6255001;28;20681;-69
2023/02/28 13:57:06;;;;;;;11.47;8.00;;;;;;;5.20;43.40;98636.94;6251907;28;20233;-70
2023/02/28 14:00:53;;;;;;;9.07;6.30;;;;;;;5.16;43.67;98634.66;6238838;28;20238;-70
2023/02/28 14:04:12;;;;;;;8.53;6.63;;;;;;;5.03;43.60;98646.88;6220890;28;20232;-70
2023/02/28 14:07:22;;;;;;;9.60;6.43;;;;;;;5.21;43.76;98643.84;6251138;28;20243;-70
2023/02/28 14:11:03;;;;;;;8.07;6.13;;;;;;;5.31;43.43;98642.56;6255452;28;20227;-69
2023/02/28 14:14:08;;;;;;;8.77;6.90;;;;;;;5.29;43.79;98639.28;6247803;28;20251;-69
2023/02/28 14:17:16;;;;;;;7.53;5.93;;;;;;;4.90;43.14;98587.59;6257478;28;20224;-69
2023/02/28 14:20:21;;;;;;;12.43;7.60;;;;;;;5.18;43.21;98632.66;6252578;28;20227;-70
2023/02/28 14:23:50;;;;;;;9.47;6.67;;;;;;;4.78;43.07;98583.78;6255897;28;20774;-69
2023/02/28 14:27:08;;;;;;;7.90;5.60;;;;;;;5.22;43.16;98633.13;6262615;28;20739;-69
2023/02/28 14:30:45;;;;;;;8.60;6.50;;;;;;;5.23;43.43;98615.44;6273139;28;20220;-69
2023/02/28 14:34:11;;;;;;;7.87;6.00;;;;;;;5.24;43.89;98625.81;6278099;28;20607;-70
2023/02/28 14:37:20;;;;;;;6.40;5.50;;;;;;;5.18;44.14;98616.00;6276220;28;20727;-70
2023/02/28 14:40:32;;;;;;;6.90;5.33;;;;;;;5.27;44.42;98633.38;6275850;28;20231;-70
2023/02/28 14:43:34;;;;;;;7.53;5.60;;;;;;;5.28;44.62;98621.00;6279150;28;20251;-69
2023/02/28 14:46:39;;;;;;;9.50;7.90;;;;;;;5.04;44.21;98622.13;6280749;28;20249;-69